sensor_id;sensor_type;location;lat;lon;timestamp;temperature;humidity
20957;DHT22;10637;47.970;7.830;2024-03-23T00:53:46;15.80;99.90
20957;DHT22;10637;47.970;7.830;2024-03-23T00:58:47;15.90;99.90
20957;DHT22;10637;47.970;7.830;2024-03-23T01:03:49;16.10;99.90
20957;DHT22;10637;47.970;7.830;2024-03-23T01:08:49;16.10;99.90
20957;DHT22;10637;47.970;7.830;2024-03-23T01:13:50;16.10;99.90
20957;DHT22;10637;47.970;7.830;2024-03-23T01:18:51;16.10;99.90
20957;DHT22;10637;47.970;7.830;2024-03-23T01:23:52;16.10;99.90
20957;DHT22;10637;47.970;7.830;2024-03-23T01:28:52;16.20;99.90
20957;DHT22;10637;47.970;7.830;2024-03-23T01:33:53;16.10;99.90
20957;DHT22;10637;47.970;7.830;2024-03-23T01:38:54;16.30;99.90
20957;DHT22;10637;47.970;7.830;2024-03-23T01:43:55;16.40;99.90
20957;DHT22;10637;47.970;7.830;2024-03-23T01:48:57;16.30;99.90
20957;DHT22;10637;47.970;7.830;2024-03-23T01:53:58;16.20;99.90
20957;DHT22;10637;47.970;7.830;2024-03-23T01:59:06;16.10;99.90
20957;DHT22;10637;47.970;7.830;2024-03-23T02:04:07;16.00;99.90
20957;DHT22;10637;47.970;7.830;2024-03-23T02:09:10;15.90;99.90
20957;DHT22;10637;47.970;7.830;2024-03-23T02:14:11;15.90;99.90
20957;DHT22;10637;47.970;7.830;2024-03-23T02:19:12;15.80;99.90
20957;DHT22;10637;47.970;7.830;2024-03-23T02:24:12;15.80;99.90
20957;DHT22;10637;47.970;7.830;2024-03-23T02:29:13;15.70;99.90
20957;DHT22;10637;47.970;7.830;2024-03-23T02:34:14;15.60;99.90
20957;DHT22;10637;47.970;7.830;2024-03-23T02:39:15;15.60;99.90
20957;DHT22;10637;47.970;7.830;2024-03-23T02:44:15;15.50;99.90
20957;DHT22;10637;47.970;7.830;2024-03-23T02:49:16;15.40;99.90
20957;DHT22;10637;47.970;7.830;2024-03-23T02:54:17;15.40;99.90
20957;DHT22;10637;47.970;7.830;2024-03-23T02:59:18;15.30;99.90
20957;DHT22;10637;47.970;7.830;2024-03-23T03:04:19;15.20;99.90
20957;DHT22;10637;47.970;7.830;2024-03-23T03:09:19;15.10;99.90
20957;DHT22;10637;47.970;7.830;2024-03-23T03:14:20;15.00;99.90
20957;DHT22;10637;47.970;7.830;2024-03-23T03:19:21;14.90;99.90
20957;DHT22;10637;47.970;7.830;2024-03-23T03:24:22;14.90;99.90
20957;DHT22;10637;47.970;7.830;2024-03-23T03:29:23;14.90;99.90
20957;DHT22;10637;47.970;7.830;2024-03-23T03:34:23;14.90;99.90
20957;DHT22;10637;47.970;7.830;2024-03-23T03:39:24;14.90;99.90
20957;DHT22;10637;47.970;7.830;2024-03-23T03:44:25;14.90;99.90
20957;DHT22;10637;47.970;7.830;2024-03-23T03:49:26;14.80;99.90
20957;DHT22;10637;47.970;7.830;2024-03-23T03:54:27;14.70;99.90
20957;DHT22;10637;47.970;7.830;2024-03-23T03:59:27;14.70;99.90
20957;DHT22;10637;47.970;7.830;2024-03-23T04:04:28;14.60;99.90
20957;DHT22;10637;47.970;7.830;2024-03-23T04:09:29;14.40;99.90
20957;DHT22;10637;47.970;7.830;2024-03-23T04:14:30;14.30;99.90
20957;DHT22;10637;47.970;7.830;2024-03-23T04:19:31;14.30;99.90
20957;DHT22;10637;47.970;7.830;2024-03-23T04:24:32;14.30;99.90
20957;DHT22;10637;47.970;7.830;2024-03-23T04:29:33;14.10;99.90
20957;DHT22;10637;47.970;7.830;2024-03-23T04:34:33;13.90;99.90
20957;DHT22;10637;47.970;7.830;2024-03-23T04:39:36;13.80;99.90
20957;DHT22;10637;47.970;7.830;2024-03-23T04:44:36;13.80;99.90
20957;DHT22;10637;47.970;7.830;2024-03-23T04:49:37;13.80;99.90
20957;DHT22;10637;47.970;7.830;2024-03-23T04:54:38;13.70;99.90
20957;DHT22;10637;47.970;7.830;2024-03-23T04:59:40;13.60;99.90
20957;DHT22;10637;47.970;7.830;2024-03-23T05:04:41;13.40;99.90
20957;DHT22;10637;47.970;7.830;2024-03-23T05:09:42;13.10;99.90
20957;DHT22;10637;47.970;7.830;2024-03-23T05:14:43;13.00;99.90
20957;DHT22;10637;47.970;7.830;2024-03-23T05:19:44;12.90;99.90
20957;DHT22;10637;47.970;7.830;2024-03-23T05:24:45;12.90;99.90
20957;DHT22;10637;47.970;7.830;2024-03-23T05:29:46;12.90;99.90
20957;DHT22;10637;47.970;7.830;2024-03-23T05:34:48;12.90;99.90
20957;DHT22;10637;47.970;7.830;2024-03-23T05:39:51;12.90;99.90
20957;DHT22;10637;47.970;7.830;2024-03-23T05:44:51;12.90;99.90
20957;DHT22;10637;47.970;7.830;2024-03-23T05:49:52;12.90;99.90
20957;DHT22;10637;47.970;7.830;2024-03-23T05:54:53;12.90;99.90
20957;DHT22;10637;47.970;7.830;2024-03-23T05:59:54;12.90;99.90
20957;DHT22;10637;47.970;7.830;2024-03-23T06:04:56;12.90;99.90
20957;DHT22;10637;47.970;7.830;2024-03-23T06:09:57;12.90;99.90
20957;DHT22;10637;47.970;7.830;2024-03-23T06:14:58;12.80;99.90
20957;DHT22;10637;47.970;7.830;2024-03-23T06:19:59;12.00;99.90
20957;DHT22;10637;47.970;7.830;2024-03-23T06:25:00;11.70;99.90
20957;DHT22;10637;47.970;7.830;2024-03-23T06:30:01;11.50;99.90
20957;DHT22;10637;47.970;7.830;2024-03-23T06:35:01;11.30;99.90
20957;DHT22;10637;47.970;7.830;2024-03-23T06:40:08;11.10;99.90
20957;DHT22;10637;47.970;7.830;2024-03-23T06:45:10;10.80;99.90
20957;DHT22;10637;47.970;7.830;2024-03-23T06:50:11;10.70;99.90
20957;DHT22;10637;47.970;7.830;2024-03-23T06:55:12;10.70;99.90
20957;DHT22;10637;47.970;7.830;2024-03-23T07:00:13;10.80;99.90
20957;DHT22;10637;47.970;7.830;2024-03-23T07:05:16;10.60;99.90
20957;DHT22;10637;47.970;7.830;2024-03-23T07:10:16;10.50;99.90
20957;DHT22;10637;47.970;7.830;2024-03-23T07:15:18;10.40;99.90
20957;DHT22;10637;47.970;7.830;2024-03-23T07:20:18;10.40;99.90
20957;DHT22;10637;47.970;7.830;2024-03-23T07:25:20;10.40;99.90
20957;DHT22;10637;47.970;7.830;2024-03-23T07:30:23;10.40;99.90
20957;DHT22;10637;47.970;7.830;2024-03-23T07:35:24;10.40;99.90
20957;DHT22;10637;47.970;7.830;2024-03-23T07:40:24;10.40;99.90
20957;DHT22;10637;47.970;7.830;2024-03-23T07:45:25;10.40;99.90
20957;DHT22;10637;47.970;7.830;2024-03-23T07:50:26;10.40;99.90
20957;DHT22;10637;47.970;7.830;2024-03-23T07:55:27;10.50;99.90
20957;DHT22;10637;47.970;7.830;2024-03-23T08:00:27;10.40;99.90
20957;DHT22;10637;47.970;7.830;2024-03-23T08:05:28;10.20;99.90
20957;DHT22;10637;47.970;7.830;2024-03-23T08:10:29;10.00;99.90
20957;DHT22;10637;47.970;7.830;2024-03-23T08:15:30;10.10;99.90
20957;DHT22;10637;47.970;7.830;2024-03-23T08:20:33;10.20;99.90
20957;DHT22;10637;47.970;7.830;2024-03-23T08:25:34;10.30;99.90
20957;DHT22;10637;47.970;7.830;2024-03-23T08:30:35;10.30;99.90
20957;DHT22;10637;47.970;7.830;2024-03-23T08:35:36;10.50;99.90
20957;DHT22;10637;47.970;7.830;2024-03-23T08:40:37;10.50;99.90
20957;DHT22;10637;47.970;7.830;2024-03-23T08:45:38;10.40;99.90
20957;DHT22;10637;47.970;7.830;2024-03-23T08:50:38;10.50;99.90
20957;DHT22;10637;47.970;7.830;2024-03-23T08:55:39;10.50;99.90
20957;DHT22;10637;47.970;7.830;2024-03-23T09:00:40;10.60;99.90
20957;DHT22;10637;47.970;7.830;2024-03-23T09:05:41;10.60;99.90
20957;DHT22;10637;47.970;7.830;2024-03-23T09:10:42;10.80;99.90
20957;DHT22;10637;47.970;7.830;2024-03-23T09:15:48;10.70;99.90
20957;DHT22;10637;47.970;7.830;2024-03-23T09:20:49;10.60;99.90
20957;DHT22;10637;47.970;7.830;2024-03-23T09:25:50;10.80;99.90
20957;DHT22;10637;47.970;7.830;2024-03-23T09:30:51;10.90;99.90
20957;DHT22;10637;47.970;7.830;2024-03-23T09:35:51;11.40;99.90
20957;DHT22;10637;47.970;7.830;2024-03-23T09:40:53;11.70;99.90
20957;DHT22;10637;47.970;7.830;2024-03-23T09:45:54;13.00;99.90
20957;DHT22;10637;47.970;7.830;2024-03-23T09:57:17;13.50;99.90
20957;DHT22;10637;47.970;7.830;2024-03-23T10:02:18;12.80;99.90
20957;DHT22;10637;47.970;7.830;2024-03-23T10:07:21;13.00;99.90
20957;DHT22;10637;47.970;7.830;2024-03-23T10:12:23;12.70;99.90
20957;DHT22;10637;47.970;7.830;2024-03-23T10:17:24;12.30;99.90
20957;DHT22;10637;47.970;7.830;2024-03-23T10:22:25;11.90;99.90
20957;DHT22;10637;47.970;7.830;2024-03-23T10:40:37;10.60;99.90
20957;DHT22;10637;47.970;7.830;2024-03-23T10:57:09;8.60;99.90
20957;DHT22;10637;47.970;7.830;2024-03-23T11:02:19;8.30;99.90
20957;DHT22;10637;47.970;7.830;2024-03-23T11:12:28;8.10;99.90
20957;DHT22;10637;47.970;7.830;2024-03-23T11:17:32;8.30;99.90
20957;DHT22;10637;47.970;7.830;2024-03-23T11:22:46;8.50;99.90
20957;DHT22;10637;47.970;7.830;2024-03-23T11:27:49;8.50;99.90
20957;DHT22;10637;47.970;7.830;2024-03-23T11:32:51;8.50;99.90
20957;DHT22;10637;47.970;7.830;2024-03-23T11:38:14;8.30;99.90
20957;DHT22;10637;47.970;7.830;2024-03-23T11:43:19;8.20;99.90
20957;DHT22;10637;47.970;7.830;2024-03-23T11:48:21;8.10;99.90
20957;DHT22;10637;47.970;7.830;2024-03-23T11:53:23;8.20;99.90
20957;DHT22;10637;47.970;7.830;2024-03-23T11:58:26;8.30;99.90
20957;DHT22;10637;47.970;7.830;2024-03-23T12:03:27;8.80;99.90
20957;DHT22;10637;47.970;7.830;2024-03-23T12:08:37;9.10;99.90
20957;DHT22;10637;47.970;7.830;2024-03-23T12:13:39;10.10;99.90
20957;DHT22;10637;47.970;7.830;2024-03-23T12:18:51;11.30;99.90
20957;DHT22;10637;47.970;7.830;2024-03-23T12:23:52;11.80;99.90
20957;DHT22;10637;47.970;7.830;2024-03-23T12:28:53;11.30;99.90
20957;DHT22;10637;47.970;7.830;2024-03-23T12:33:53;10.90;99.90
20957;DHT22;10637;47.970;7.830;2024-03-23T12:38:54;10.40;99.90
20957;DHT22;10637;47.970;7.830;2024-03-23T12:43:55;10.40;99.90
20957;DHT22;10637;47.970;7.830;2024-03-23T12:48:56;11.50;99.90
20957;DHT22;10637;47.970;7.830;2024-03-23T12:53:56;11.80;99.90
20957;DHT22;10637;47.970;7.830;2024-03-23T12:58:57;11.70;99.90
20957;DHT22;10637;47.970;7.830;2024-03-23T13:03:58;11.60;99.90
20957;DHT22;10637;47.970;7.830;2024-03-23T13:09:01;11.00;99.90
20957;DHT22;10637;47.970;7.830;2024-03-23T13:14:02;10.50;99.90
20957;DHT22;10637;47.970;7.830;2024-03-23T13:19:04;10.40;99.90
20957;DHT22;10637;47.970;7.830;2024-03-23T13:24:05;10.20;99.90
20957;DHT22;10637;47.970;7.830;2024-03-23T13:29:06;10.20;99.90
20957;DHT22;10637;47.970;7.830;2024-03-23T13:34:07;10.40;99.90
20957;DHT22;10637;47.970;7.830;2024-03-23T13:39:08;12.00;99.90
20957;DHT22;10637;47.970;7.830;2024-03-23T13:44:12;12.60;99.90
20957;DHT22;10637;47.970;7.830;2024-03-23T13:49:31;12.20;99.90
20957;DHT22;10637;47.970;7.830;2024-03-23T13:54:35;11.80;99.90
20957;DHT22;10637;47.970;7.830;2024-03-23T13:59:37;12.00;99.90
20957;DHT22;10637;47.970;7.830;2024-03-23T14:04:37;12.60;99.90
20957;DHT22;10637;47.970;7.830;2024-03-23T14:09:38;13.10;99.90
20957;DHT22;10637;47.970;7.830;2024-03-23T14:14:39;13.00;99.90
20957;DHT22;10637;47.970;7.830;2024-03-23T14:19:40;12.50;99.90
20957;DHT22;10637;47.970;7.830;2024-03-23T14:24:40;12.20;99.90
20957;DHT22;10637;47.970;7.830;2024-03-23T14:29:41;12.20;99.90
20957;DHT22;10637;47.970;7.830;2024-03-23T14:34:42;11.40;99.90
20957;DHT22;10637;47.970;7.830;2024-03-23T14:39:43;10.90;99.90
20957;DHT22;10637;47.970;7.830;2024-03-23T14:44:45;10.60;99.90
20957;DHT22;10637;47.970;7.830;2024-03-23T14:49:47;10.20;99.90
20957;DHT22;10637;47.970;7.830;2024-03-23T14:54:48;10.00;99.90
20957;DHT22;10637;47.970;7.830;2024-03-23T14:59:49;9.70;99.90
20957;DHT22;10637;47.970;7.830;2024-03-23T15:04:50;9.60;99.90
20957;DHT22;10637;47.970;7.830;2024-03-23T15:09:51;9.60;99.90
20957;DHT22;10637;47.970;7.830;2024-03-23T15:14:51;9.60;99.90
20957;DHT22;10637;47.970;7.830;2024-03-23T15:19:53;9.50;99.90
20957;DHT22;10637;47.970;7.830;2024-03-23T15:24:54;9.60;99.90
20957;DHT22;10637;47.970;7.830;2024-03-23T15:29:56;9.60;99.90
20957;DHT22;10637;47.970;7.830;2024-03-23T15:34:58;9.60;99.90
20957;DHT22;10637;47.970;7.830;2024-03-23T15:39:59;9.60;99.90
20957;DHT22;10637;47.970;7.830;2024-03-23T15:44:59;9.50;99.90
20957;DHT22;10637;47.970;7.830;2024-03-23T15:50:01;9.50;99.90
20957;DHT22;10637;47.970;7.830;2024-03-23T15:55:04;9.60;99.90
20957;DHT22;10637;47.970;7.830;2024-03-23T16:00:08;9.80;99.90
20957;DHT22;10637;47.970;7.830;2024-03-23T16:05:10;9.70;99.90
20957;DHT22;10637;47.970;7.830;2024-03-23T16:10:12;9.50;99.90
20957;DHT22;10637;47.970;7.830;2024-03-23T16:15:13;8.70;99.90
20957;DHT22;10637;47.970;7.830;2024-03-23T16:20:13;7.90;99.90
20957;DHT22;10637;47.970;7.830;2024-03-23T16:25:14;7.30;99.90
20957;DHT22;10637;47.970;7.830;2024-03-23T16:30:21;7.10;99.90
20957;DHT22;10637;47.970;7.830;2024-03-23T16:35:21;7.10;99.90
20957;DHT22;10637;47.970;7.830;2024-03-23T16:40:22;7.00;99.90
20957;DHT22;10637;47.970;7.830;2024-03-23T16:45:25;7.00;99.90
20957;DHT22;10637;47.970;7.830;2024-03-23T16:50:25;7.20;99.90
20957;DHT22;10637;47.970;7.830;2024-03-23T16:55:26;7.20;99.90
20957;DHT22;10637;47.970;7.830;2024-03-23T17:00:27;7.40;99.90
20957;DHT22;10637;47.970;7.830;2024-03-23T17:05:28;7.30;99.90
20957;DHT22;10637;47.970;7.830;2024-03-23T17:10:29;7.30;99.90
20957;DHT22;10637;47.970;7.830;2024-03-23T17:15:30;7.60;99.90
20957;DHT22;10637;47.970;7.830;2024-03-23T17:20:31;7.50;99.90
20957;DHT22;10637;47.970;7.830;2024-03-23T17:25:32;7.30;99.90
20957;DHT22;10637;47.970;7.830;2024-03-23T17:30:33;7.30;99.90
20957;DHT22;10637;47.970;7.830;2024-03-23T17:35:33;7.20;99.90
20957;DHT22;10637;47.970;7.830;2024-03-23T17:40:34;6.90;99.90
20957;DHT22;10637;47.970;7.830;2024-03-23T17:45:35;6.70;99.90
20957;DHT22;10637;47.970;7.830;2024-03-23T17:50:36;6.60;99.90
20957;DHT22;10637;47.970;7.830;2024-03-23T17:55:38;6.70;99.90
20957;DHT22;10637;47.970;7.830;2024-03-23T18:00:38;6.70;99.90
20957;DHT22;10637;47.970;7.830;2024-03-23T18:05:39;6.70;99.90
20957;DHT22;10637;47.970;7.830;2024-03-23T18:10:40;6.80;99.90
20957;DHT22;10637;47.970;7.830;2024-03-23T18:15:41;6.80;99.90
20957;DHT22;10637;47.970;7.830;2024-03-23T18:20:42;6.80;99.90
20957;DHT22;10637;47.970;7.830;2024-03-23T18:25:56;6.90;99.90
20957;DHT22;10637;47.970;7.830;2024-03-23T18:30:57;7.00;99.90
20957;DHT22;10637;47.970;7.830;2024-03-23T18:35:58;7.00;99.90
20957;DHT22;10637;47.970;7.830;2024-03-23T18:41:00;7.10;99.90
20957;DHT22;10637;47.970;7.830;2024-03-23T18:46:01;7.10;99.90
20957;DHT22;10637;47.970;7.830;2024-03-23T18:51:03;7.20;99.90
20957;DHT22;10637;47.970;7.830;2024-03-23T18:56:04;7.20;99.90
20957;DHT22;10637;47.970;7.830;2024-03-23T19:01:05;7.20;99.90
20957;DHT22;10637;47.970;7.830;2024-03-23T19:06:06;7.30;99.90
20957;DHT22;10637;47.970;7.830;2024-03-23T19:11:07;7.20;99.90
20957;DHT22;10637;47.970;7.830;2024-03-23T19:16:09;7.20;99.90
20957;DHT22;10637;47.970;7.830;2024-03-23T19:21:10;7.30;99.90
20957;DHT22;10637;47.970;7.830;2024-03-23T19:26:10;7.20;99.90
20957;DHT22;10637;47.970;7.830;2024-03-23T19:31:11;6.90;99.90
20957;DHT22;10637;47.970;7.830;2024-03-23T19:36:12;6.20;99.90
20957;DHT22;10637;47.970;7.830;2024-03-23T19:41:12;5.70;99.90
20957;DHT22;10637;47.970;7.830;2024-03-23T19:46:13;5.50;99.90
20957;DHT22;10637;47.970;7.830;2024-03-23T19:51:15;5.00;99.90
20957;DHT22;10637;47.970;7.830;2024-03-23T19:56:16;4.50;99.90
20957;DHT22;10637;47.970;7.830;2024-03-23T20:01:18;4.40;99.90
20957;DHT22;10637;47.970;7.830;2024-03-23T20:06:19;4.50;99.90
20957;DHT22;10637;47.970;7.830;2024-03-23T20:11:24;4.50;99.90
20957;DHT22;10637;47.970;7.830;2024-03-23T20:16:25;4.70;99.90
20957;DHT22;10637;47.970;7.830;2024-03-23T20:21:26;4.80;99.90
20957;DHT22;10637;47.970;7.830;2024-03-23T20:26:27;4.80;99.90
20957;DHT22;10637;47.970;7.830;2024-03-23T20:31:28;4.80;99.90
20957;DHT22;10637;47.970;7.830;2024-03-23T20:36:29;4.90;99.90
20957;DHT22;10637;47.970;7.830;2024-03-23T20:41:30;4.90;99.90
20957;DHT22;10637;47.970;7.830;2024-03-23T20:46:30;5.00;99.90
20957;DHT22;10637;47.970;7.830;2024-03-23T20:51:31;5.40;99.90
20957;DHT22;10637;47.970;7.830;2024-03-23T20:56:32;5.50;99.90
20957;DHT22;10637;47.970;7.830;2024-03-23T21:01:33;5.40;99.90
20957;DHT22;10637;47.970;7.830;2024-03-23T21:06:34;5.40;99.90
20957;DHT22;10637;47.970;7.830;2024-03-23T21:11:34;5.30;99.90
20957;DHT22;10637;47.970;7.830;2024-03-23T21:16:35;5.50;99.90
20957;DHT22;10637;47.970;7.830;2024-03-23T21:21:36;5.50;99.90
20957;DHT22;10637;47.970;7.830;2024-03-23T21:26:37;5.50;99.90
20957;DHT22;10637;47.970;7.830;2024-03-23T21:31:37;5.60;99.90
20957;DHT22;10637;47.970;7.830;2024-03-23T21:36:38;5.50;99.90
20957;DHT22;10637;47.970;7.830;2024-03-23T21:41:39;5.60;99.90
20957;DHT22;10637;47.970;7.830;2024-03-23T21:46:40;5.70;99.90
20957;DHT22;10637;47.970;7.830;2024-03-23T21:51:41;5.80;99.90
20957;DHT22;10637;47.970;7.830;2024-03-23T21:56:42;6.00;99.90
20957;DHT22;10637;47.970;7.830;2024-03-23T22:01:42;6.10;99.90
20957;DHT22;10637;47.970;7.830;2024-03-23T22:06:44;6.10;99.90
20957;DHT22;10637;47.970;7.830;2024-03-23T22:11:45;6.20;99.90
20957;DHT22;10637;47.970;7.830;2024-03-23T22:16:46;6.30;99.90
20957;DHT22;10637;47.970;7.830;2024-03-23T22:21:46;6.40;99.90
20957;DHT22;10637;47.970;7.830;2024-03-23T22:26:47;6.50;99.90
20957;DHT22;10637;47.970;7.830;2024-03-23T22:31:48;6.60;99.90
20957;DHT22;10637;47.970;7.830;2024-03-23T22:36:49;6.60;99.90
20957;DHT22;10637;47.970;7.830;2024-03-23T22:41:50;6.70;99.90
20957;DHT22;10637;47.970;7.830;2024-03-23T22:46:52;6.80;99.90
20957;DHT22;10637;47.970;7.830;2024-03-23T22:51:53;6.70;99.90
20957;DHT22;10637;47.970;7.830;2024-03-23T22:56:54;6.60;99.90
20957;DHT22;10637;47.970;7.830;2024-03-23T23:01:54;6.50;99.90
20957;DHT22;10637;47.970;7.830;2024-03-23T23:06:55;6.50;99.90
20957;DHT22;10637;47.970;7.830;2024-03-23T23:11:56;6.50;99.90
20957;DHT22;10637;47.970;7.830;2024-03-23T23:16:57;6.50;99.90
20957;DHT22;10637;47.970;7.830;2024-03-23T23:21:57;6.40;99.90
20957;DHT22;10637;47.970;7.830;2024-03-23T23:26:58;6.40;99.90
20957;DHT22;10637;47.970;7.830;2024-03-23T23:31:59;6.40;99.90
20957;DHT22;10637;47.970;7.830;2024-03-23T23:37:00;6.40;99.90
20957;DHT22;10637;47.970;7.830;2024-03-23T23:42:01;6.40;99.90
20957;DHT22;10637;47.970;7.830;2024-03-23T23:47:01;6.30;99.90
20957;DHT22;10637;47.970;7.830;2024-03-23T23:52:02;6.20;99.90
20957;DHT22;10637;47.970;7.830;2024-03-23T23:57:04;6.20;99.90
